createdAt,value
2023-04-19T20:51:18.602Z,19.83
2023-04-19T20:53:45.946Z,23.75
2023-04-19T20:56:15.687Z,29.60
2023-04-19T20:58:42.837Z,22.27
2023-04-19T21:01:13.281Z,21.95
2023-04-19T21:03:44.251Z,18.70
2023-04-19T21:06:14.323Z,17.08
2023-04-19T21:08:44.447Z,15.40
2023-04-19T21:11:14.238Z,16.90
2023-04-19T21:13:44.322Z,15.23
2023-04-19T21:16:12.708Z,15.15
2023-04-19T21:18:39.854Z,14.18
2023-04-19T21:21:12.528Z,15.15
2023-04-19T21:23:41.938Z,16.05
2023-04-19T21:26:12.831Z,14.50
2023-04-19T21:28:40.650Z,14.15
2023-04-19T21:31:08.153Z,13.48
2023-04-19T21:33:38.188Z,13.02
2023-04-19T21:36:09.100Z,13.60
2023-04-19T21:38:36.555Z,12.75
2023-04-19T21:41:03.888Z,11.60
2023-04-19T21:43:32.151Z,12.07
2023-04-19T21:45:59.473Z,12.93
2023-04-19T21:48:26.697Z,11.75
2023-04-19T21:50:53.842Z,11.98
2023-04-19T21:53:26.681Z,11.18
2023-04-19T21:55:54.031Z,13.52
2023-04-19T21:58:23.192Z,12.50
2023-04-19T22:00:50.616Z,12.07
2023-04-19T22:03:17.741Z,12.52
2023-04-19T22:05:48.354Z,12.35
2023-04-19T22:08:18.239Z,16.10
2023-04-19T22:10:46.580Z,19.38
2023-04-19T22:13:14.524Z,17.55
2023-04-19T22:15:44.378Z,19.40
2023-04-19T22:18:12.034Z,16.35
2023-04-19T22:20:39.951Z,14.98
2023-04-19T22:23:07.132Z,12.82
2023-04-19T22:25:37.150Z,12.00
2023-04-19T22:28:07.262Z,11.90
2023-04-19T22:30:35.099Z,12.38
2023-04-19T22:33:02.289Z,12.05
2023-04-19T22:35:29.333Z,12.75
2023-04-19T22:37:56.273Z,11.63
2023-04-19T22:40:23.387Z,13.40
2023-04-19T22:42:50.611Z,12.10
2023-04-19T22:45:17.657Z,12.45
2023-04-19T22:47:45.486Z,11.80
2023-04-19T22:50:12.535Z,12.48
2023-04-19T22:52:39.561Z,11.60
2023-04-19T22:55:07.392Z,10.93
2023-04-19T22:57:34.380Z,10.75
2023-04-19T23:00:01.368Z,12.25
2023-04-19T23:02:28.413Z,11.80
2023-04-19T23:04:55.695Z,11.90
2023-04-19T23:07:22.930Z,10.73
2023-04-19T23:09:51.370Z,11.05
2023-04-19T23:12:18.437Z,11.52
2023-04-19T23:14:48.689Z,11.18
2023-04-19T23:17:18.458Z,10.57
2023-04-19T23:19:45.412Z,10.50
2023-04-19T23:22:12.541Z,10.18
2023-04-19T23:24:39.590Z,10.95
2023-04-19T23:27:07.111Z,10.35
2023-04-19T23:29:34.130Z,10.40
2023-04-19T23:32:02.292Z,11.20
2023-04-19T23:34:29.456Z,10.15
2023-04-19T23:36:56.986Z,11.43
2023-04-19T23:39:23.969Z,11.68
2023-04-19T23:41:51.222Z,11.93
2023-04-19T23:44:18.257Z,10.20
2023-04-19T23:46:45.314Z,11.05
2023-04-19T23:49:12.384Z,10.82
2023-04-19T23:51:39.325Z,11.50
2023-04-19T23:54:06.407Z,12.35
2023-04-19T23:56:33.597Z,12.27
2023-04-19T23:59:00.535Z,12.02
